Terminal Aerodrome Forecast
Issued by NWS Pueblo, CO

Home | Current Version | Previous Version | Text Only | Print | Product List | Glossary On
Versions: 1 2 3 4 5 6 7 8 9 10 11 12 13 14 15
000
FTUS45 KPUB 182325
TAFALS
TAF
KALS 182325Z 1900/1924 22025G35KT P6SM SCT200
     FM190200 20010G22KT P6SM SCT200
     FM191500 19018G35KT P6SM SCT120
     FM191700 21030G40KT P6SM FEW040
     FM192200 21025G35KT P6SM VCSH FEW020 BKN040=

USA.gov is the U.S. government's official web portal to all federal, state and local government web resources and services.